WetterOnline ( https://www.wetteronline.de )

Wetter aktuell PLZ Bereich 02953

Aktuelles Wetter: Cottbus (70m)

6-stündlich | Neueste Meldungen
Ortszeit Temperatur Wetter
Mi, 16.10. 14:00 13.0° C bedeckt
Mi, 16.10. 8:00 15.1° C bedeckt
Mi, 16.10. 2:00 11.6° C wolkenlos
Di, 15.10. 20:00 13.3° C leicht bewölkt
Di, 15.10. 14:00 22.0° C leicht bewölkt
Di, 15.10. 8:00 9.6° C leicht bewölkt
Di, 15.10. 2:00 15.5° C wolkig
Mo, 14.10. 20:00 19.5° C wolkenlos
Ortszeit Temperatur Wetter
Mi, 16.10. 19:30 11.8° C leicht bewölkt
Mi, 16.10. 19:20 11.8° C leicht bewölkt
Mi, 16.10. 19:10 12.0° C leicht bewölkt
Mi, 16.10. 19:00 12.3° C wolkig
Mi, 16.10. 18:50 12.3° C wolkig
Mi, 16.10. 18:40 12.6° C bewölkt
Mi, 16.10. 18:30 12.8° C bewölkt
Mi, 16.10. 18:00 13.2° C bedeckt
Mi, 16.10. 17:30 13.1° C bewölkt
Mi, 16.10. 17:00 12.5° C bewölkt
Mi, 16.10. 16:30 13.1° C Sprühregen
Ortszeit Relative Feuchte Sichtweite
Mi, 16.10. 14:00 80% >70 km
Mi, 16.10. 8:00 91% 30 km
Mi, 16.10. 2:00 94% 9 km
Di, 15.10. 20:00 91% 13 km
Di, 15.10. 14:00 57% 27 km
Di, 15.10. 8:00 99% 5.0 km
Di, 15.10. 2:00 86% 28 km
Mo, 14.10. 20:00 70% 40 km
Ortszeit Relative Feuchte Sichtweite
Mi, 16.10. 19:30 88% 55 km
Mi, 16.10. 19:20 88% -
Mi, 16.10. 19:10 87% -
Mi, 16.10. 19:00 86% 45 km
Mi, 16.10. 18:50 86% -
Mi, 16.10. 18:40 85% -
Mi, 16.10. 18:30 84% 60 km
Mi, 16.10. 18:00 82% >70 km
Mi, 16.10. 17:30 80% 65 km
Mi, 16.10. 17:00 86% >70 km
Mi, 16.10. 16:30 79% 30 km
Ortszeit Niederschlagsmenge Niederschlagsart
Mi, 16.10. 14:00 0.7 l/m2 in 6 Std. Regen
Mi, 16.10. 8:00 0.1 l/m2 in 12 Std. Sprühregen
Mi, 16.10. 2:00 0.0 l/m2 in 6 Std. -
Di, 15.10. 20:00 0.0 l/m2 in 12 Std. -
Di, 15.10. 14:00 0.0 l/m2 in 6 Std. -
Di, 15.10. 8:00 0.0 l/m2 in 12 Std. -
Di, 15.10. 2:00 0.0 l/m2 in 6 Std. -
Mo, 14.10. 20:00 0.0 l/m2 in 12 Std. -
Ortszeit Niederschlagsmenge Niederschlagsart
Mi, 16.10. 19:30 0.0 l/m2 in 1 Std. -
Mi, 16.10. 19:20 keine Meldung -
Mi, 16.10. 19:10 keine Meldung -
Mi, 16.10. 19:00 0.0 l/m2 in 1 Std. -
Mi, 16.10. 18:50 keine Meldung -
Mi, 16.10. 18:40 keine Meldung -
Mi, 16.10. 18:30 0.0 l/m2 in 1 Std. -
Mi, 16.10. 18:00 0.0 l/m2 in 1 Std. -
Mi, 16.10. 17:30 0.0 l/m2 in 1 Std. -
Mi, 16.10. 17:00 0.3 l/m2 in 1 Std. Regen
Mi, 16.10. 16:30 0.1 l/m2 in 1 Std. -
Ortszeit Stärke Spitze Richtung
km/h Bft. km/h Grad Sektor
Mi, 16.10. 14:00 22 4 47 250° W
Mi, 16.10. 8:00 18 3 36 230° SW
Mi, 16.10. 2:00 7 2 17 150° SO
Di, 15.10. 20:00 0 0 22 - -
Di, 15.10. 14:00 9 2 22 180° S
Di, 15.10. 8:00 2 1 13 30° NO
Di, 15.10. 2:00 7 2 18 140° SO
Mo, 14.10. 20:00 9 2 17 120° SO
Ortszeit Stärke Spitze Richtung
km/h Bft. km/h Grad Sektor
Mi, 16.10. 19:30 7 2 13 210° SW
Mi, 16.10. 19:20 7 2 - 210° SW
Mi, 16.10. 19:10 7 2 - 210° SW
Mi, 16.10. 19:00 6 1 17 210° SW
Mi, 16.10. 18:50 6 1 - 210° SW
Mi, 16.10. 18:40 7 2 - 210° SW
Mi, 16.10. 18:30 7 2 17 210° SW
Mi, 16.10. 18:00 9 2 22 210° SW
Mi, 16.10. 17:30 11 2 22 260° W
Mi, 16.10. 17:00 9 2 35 260° W
Mi, 16.10. 16:30 14 3 32 270° W
Ortszeit Untergrenze Bedeckung Gattung
total tief tief mittel hoch
Mi, 16.10. 14:00 690 m 8/8 8/8 - - -
Mi, 16.10. 8:00 360 m 8/8 8/8 - - -
Mi, 16.10. 2:00 - 0/8 0/8 - - -
Di, 15.10. 20:00 9000 m 4/8 0/8 - - -
Di, 15.10. 14:00 9000 m 8/8 0/8 - - -
Di, 15.10. 8:00 10500 m 3/8 0/8 - - -
Di, 15.10. 2:00 6000 m 5/8 5/8 - - -
Mo, 14.10. 20:00 - 0/8 0/8 - - -
Ortszeit Bedeckungsgrad in Achtel und Wolkenuntergrenze
Mi, 16.10. 19:30 2(1500m)
Mi, 16.10. 19:20 2(1500m)
Mi, 16.10. 19:10 3(1500m) 4(2400m)
Mi, 16.10. 19:00 4(1500m) 6(2400m)
Mi, 16.10. 18:50 4(1500m) 6(2400m)
Mi, 16.10. 18:40 7(1800m) 7(2400m) 7(3900m)
Mi, 16.10. 18:30 5(1800m) 7(4200m) 8(4800m)
Mi, 16.10. 18:00 7(1500m) 8(2700m) 8(5100m)
Mi, 16.10. 17:30 4(1410m) 8(3000m) 8(4200m)
Mi, 16.10. 17:00 1(1230m) 7(1500m) 7(1800m)
Mi, 16.10. 16:30 3(780m) 7(1200m) 7(1410m)
Ortszeit Luftdruck NN (hPa) Tendenz (hPa in 3 Std.)
Mi, 16.10. 14:00 1011 + 1,8
Mi, 16.10. 8:00 1007 + 1,6
Mi, 16.10. 2:00 1005 - 0,7
Di, 15.10. 20:00 1006 + 0,3
Di, 15.10. 14:00 1007 - 1,9
Di, 15.10. 8:00 1010 - 0,8
Di, 15.10. 2:00 1011 - 1,4
Mo, 14.10. 20:00 1014 - 0,4
Ortszeit Luftdruck NN (hPa) Tendenz (hPa in 3 Std.)
Mi, 16.10. 19:30 1013 + 0,4
Mi, 16.10. 19:20 1013 keine Meldung
Mi, 16.10. 19:10 1012 keine Meldung
Mi, 16.10. 19:00 1012 + 0,6
Mi, 16.10. 18:50 1012 keine Meldung
Mi, 16.10. 18:40 1012 keine Meldung
Mi, 16.10. 18:30 1012 + 0,4
Mi, 16.10. 18:00 1012 + 0,5
Mi, 16.10. 17:30 1012 + 0,7
Mi, 16.10. 17:00 1012 + 0,5
Mi, 16.10. 16:30 1012 + 0,7
Ortszeit Schneehöhe (cm)
Mi, 16.10. 14:00 0
Mi, 16.10. 8:00 0
Mi, 16.10. 2:00 0
Di, 15.10. 20:00 0
Di, 15.10. 14:00 0
Di, 15.10. 8:00 0
Di, 15.10. 2:00 0
Mo, 14.10. 20:00 0
Ortszeit Schneehöhe (cm)
Mi, 16.10. 19:30 0
Mi, 16.10. 19:20 0
Mi, 16.10. 19:10 0
Mi, 16.10. 19:00 0
Mi, 16.10. 18:50 0
Mi, 16.10. 18:40 0
Mi, 16.10. 18:30 0
Mi, 16.10. 18:00 0
Mi, 16.10. 17:30 0
Mi, 16.10. 17:00 0
Mi, 16.10. 16:30 0
Link zu dieser Seite / Seite empfehlen

Das Wetter in ...